createdAt,value
2022-10-21T00:01:06.198Z,44.95
2022-10-21T00:03:34.461Z,44.03
2022-10-21T00:06:04.841Z,43.60
2022-10-21T00:08:33.209Z,49.30
2022-10-21T00:11:03.342Z,46.65
2022-10-21T00:13:32.783Z,41.08
2022-10-21T00:16:02.930Z,48.00
2022-10-21T00:18:31.770Z,52.13
2022-10-21T00:21:00.373Z,46.47
2022-10-21T00:23:30.046Z,50.50
2022-10-21T00:25:58.786Z,47.97
2022-10-21T00:28:27.110Z,53.78
2022-10-21T00:30:57.938Z,47.95
2022-10-21T00:33:28.240Z,46.78
2022-10-21T00:36:01.553Z,43.33
2022-10-21T00:38:31.825Z,49.40
2022-10-21T00:41:00.306Z,49.67
2022-10-21T00:43:29.504Z,42.28
2022-10-21T00:46:01.507Z,49.63
2022-10-21T00:48:34.254Z,44.58
2022-10-21T00:51:06.861Z,48.42
2022-10-21T00:53:39.651Z,53.33
2022-10-21T00:56:15.608Z,50.28
2022-10-21T00:58:47.817Z,46.58
2022-10-21T01:01:19.391Z,52.50
2022-10-21T01:03:50.488Z,45.95
2022-10-21T01:06:21.877Z,53.17
2022-10-21T01:08:53.203Z,43.35
2022-10-21T01:11:23.576Z,44.05
2022-10-21T01:14:16.259Z,45.58
2022-10-21T01:16:51.783Z,45.45
2022-10-21T01:19:49.297Z,49.30
2022-10-21T01:22:29.187Z,45.20
2022-10-21T01:25:25.048Z,44.72
2022-10-21T01:28:02.015Z,45.42
2022-10-21T01:30:42.733Z,48.17
2022-10-21T01:33:39.453Z,46.40
2022-10-21T01:36:27.263Z,48.92
2022-10-21T01:39:04.194Z,45.83
2022-10-21T01:41:39.363Z,48.15
2022-10-21T01:44:14.589Z,48.90
2022-10-21T01:46:49.540Z,46.30
2022-10-21T01:49:24.738Z,46.80
2022-10-21T01:51:54.413Z,42.25
2022-10-21T01:54:27.881Z,42.97
2022-10-21T01:56:58.513Z,45.17
2022-10-21T01:59:30.001Z,42.40
2022-10-21T02:02:01.953Z,43.88
2022-10-21T02:04:31.874Z,45.03
2022-10-21T02:06:59.929Z,41.85
2022-10-21T02:09:28.086Z,46.40
2022-10-21T02:12:00.541Z,47.13
2022-10-21T02:14:33.450Z,46.53
2022-10-21T02:17:03.233Z,48.78
2022-10-21T02:22:02.617Z,45.60
2022-10-21T02:24:37.942Z,43.42
2022-10-21T02:27:06.526Z,47.65
2022-10-21T02:29:37.963Z,45.17
2022-10-21T02:32:21.005Z,42.42
2022-10-21T02:35:01.311Z,36.92
2022-10-21T02:37:34.140Z,43.08
2022-10-21T02:40:07.793Z,42.38
2022-10-21T02:42:40.790Z,41.40
2022-10-21T02:45:11.199Z,41.00
2022-10-21T02:47:41.417Z,42.55
2022-10-21T02:50:09.962Z,40.70
2022-10-21T02:52:37.970Z,37.70
2022-10-21T02:55:06.761Z,38.65
2022-10-21T02:57:34.865Z,38.80
2022-10-21T03:00:02.886Z,39.88
2022-10-21T03:02:30.882Z,35.22
2022-10-21T03:05:00.313Z,39.55
2022-10-21T03:07:28.354Z,40.72
2022-10-21T03:09:56.345Z,39.97
2022-10-21T03:12:24.313Z,36.78
2022-10-21T03:14:52.361Z,44.05
2022-10-21T03:17:22.856Z,41.95
2022-10-21T03:19:53.243Z,39.30
2022-10-21T03:22:22.593Z,43.30
2022-10-21T03:24:50.630Z,37.28
2022-10-21T03:27:18.828Z,35.90
2022-10-21T03:29:46.845Z,39.60
2022-10-21T03:32:14.830Z,38.45
2022-10-21T03:34:42.860Z,35.75
2022-10-21T03:37:10.841Z,33.05
2022-10-21T03:39:40.182Z,39.58
2022-10-21T03:42:08.227Z,34.15
2022-10-21T03:44:36.284Z,33.42
2022-10-21T03:47:04.281Z,36.63
2022-10-21T03:49:32.431Z,44.33
2022-10-21T03:52:00.514Z,35.03
2022-10-21T03:54:28.619Z,45.03
2022-10-21T03:56:58.038Z,37.47
2022-10-21T03:59:26.096Z,38.97
2022-10-21T04:01:54.158Z,39.55
2022-10-21T04:04:22.250Z,42.72
2022-10-21T04:06:50.361Z,46.13
2022-10-21T04:09:18.475Z,39.20
2022-10-21T04:11:46.562Z,37.80
2022-10-21T04:14:15.953Z,36.55
2022-10-21T04:16:44.078Z,41.03
2022-10-21T04:19:17.428Z,38.10
2022-10-21T04:21:45.550Z,41.03
2022-10-21T04:24:13.776Z,35.85
2022-10-21T04:26:42.594Z,40.58
2022-10-21T04:29:10.615Z,44.85
2022-10-21T04:31:39.974Z,38.10
2022-10-21T04:34:08.033Z,39.80
2022-10-21T04:36:36.018Z,36.38
2022-10-21T04:39:04.770Z,41.50
2022-10-21T04:41:32.780Z,41.63
2022-10-21T04:44:00.781Z,35.60
2022-10-21T04:46:28.791Z,38.90
2022-10-21T04:48:58.150Z,38.53
2022-10-21T04:51:26.246Z,52.42
2022-10-21T04:53:54.298Z,35.33
2022-10-21T04:56:22.322Z,40.88
2022-10-21T04:58:50.322Z,41.83
2022-10-21T05:01:18.438Z,41.03
2022-10-21T05:03:46.527Z,40.67
2022-10-21T05:06:15.927Z,39.22
2022-10-21T05:08:44.008Z,46.15
2022-10-21T05:11:12.086Z,49.78
2022-10-21T05:13:40.081Z,52.38
2022-10-21T05:16:08.598Z,40.78
2022-10-21T05:18:36.552Z,42.03
2022-10-21T05:21:04.794Z,47.25
2022-10-21T05:23:34.354Z,40.78
2022-10-21T05:26:02.348Z,45.20
2022-10-21T05:28:30.433Z,41.75
2022-10-21T05:30:58.426Z,38.88
2022-10-21T05:33:26.418Z,42.17
2022-10-21T05:35:58.788Z,37.63
2022-10-21T05:38:26.837Z,43.60
2022-10-21T05:40:56.671Z,42.17
2022-10-21T05:43:25.155Z,46.17
2022-10-21T05:45:53.109Z,41.35
2022-10-21T05:48:21.200Z,41.80
2022-10-21T05:50:52.774Z,43.45
2022-10-21T05:53:20.903Z,47.33
2022-10-21T05:55:58.183Z,48.83
2022-10-21T05:58:26.891Z,43.35
2022-10-21T06:00:55.477Z,40.55
2022-10-21T06:03:24.013Z,46.67
2022-10-21T06:05:52.041Z,44.80
2022-10-21T06:08:20.081Z,43.00
2022-10-21T06:10:48.054Z,47.22
2022-10-21T06:13:17.449Z,44.45
2022-10-21T06:15:48.745Z,44.15
2022-10-21T06:18:18.329Z,47.17
2022-10-21T06:20:46.304Z,46.47
2022-10-21T06:23:16.248Z,38.60
2022-10-21T06:25:44.565Z,40.55
2022-10-21T06:28:12.574Z,43.55
2022-10-21T06:30:41.972Z,44.08
2022-10-21T06:33:09.940Z,45.95
2022-10-21T06:35:37.990Z,47.10
2022-10-21T06:38:05.965Z,38.80
2022-10-21T06:40:34.033Z,48.20
2022-10-21T06:43:02.177Z,48.40
2022-10-21T06:45:30.210Z,36.70
2022-10-21T06:47:59.736Z,42.67
2022-10-21T06:50:27.854Z,42.03
2022-10-21T06:52:56.126Z,44.67
2022-10-21T06:55:24.162Z,44.40
2022-10-21T06:57:52.190Z,44.47
2022-10-21T07:00:20.301Z,45.40
2022-10-21T07:02:48.366Z,38.30
2022-10-21T07:05:17.959Z,46.80
2022-10-21T07:07:46.077Z,40.78
2022-10-21T07:10:14.333Z,43.90
2022-10-21T07:12:42.337Z,44.05
2022-10-21T07:15:11.090Z,38.00
2022-10-21T07:17:39.370Z,44.03
2022-10-21T07:20:08.389Z,42.25
2022-10-21T07:22:37.751Z,37.45
2022-10-21T07:25:06.502Z,36.55
2022-10-21T07:27:34.604Z,36.67
2022-10-21T07:30:02.678Z,34.80
2022-10-21T07:32:30.811Z,33.40
2022-10-21T07:34:58.859Z,36.15
2022-10-21T07:37:26.841Z,27.35
2022-10-21T07:39:56.462Z,30.50
2022-10-21T07:42:24.664Z,28.85
2022-10-21T07:44:57.336Z,31.52
2022-10-21T07:47:25.779Z,30.42
2022-10-21T07:49:54.301Z,30.40
2022-10-21T07:52:22.605Z,29.13
2022-10-21T07:54:50.953Z,30.83
2022-10-21T07:57:20.669Z,30.63
2022-10-21T07:59:48.989Z,28.67
2022-10-21T08:02:17.313Z,30.23
2022-10-21T08:04:45.729Z,33.58
2022-10-21T08:07:14.100Z,30.63
2022-10-21T08:09:42.431Z,30.55
2022-10-21T08:12:14.390Z,29.20
2022-10-21T08:14:45.232Z,29.98
2022-10-21T08:17:13.579Z,26.77
2022-10-21T08:19:41.888Z,33.67
2022-10-21T08:22:10.679Z,29.50
2022-10-21T08:24:42.367Z,32.45
2022-10-21T08:27:10.796Z,25.63
2022-10-21T08:29:40.085Z,28.00
2022-10-21T08:32:10.188Z,29.25
2022-10-21T08:34:38.466Z,32.17
2022-10-21T08:37:06.817Z,28.17
2022-10-21T08:39:35.583Z,26.27
2022-10-21T08:42:09.012Z,29.95
2022-10-21T08:44:49.293Z,30.67
2022-10-21T08:47:25.100Z,28.25
2022-10-21T08:49:59.500Z,28.02
2022-10-21T08:52:38.094Z,27.73
2022-10-21T08:55:09.363Z,26.08
2022-10-21T08:57:38.110Z,23.83
2022-10-21T09:00:15.920Z,24.88
2022-10-21T09:03:06.074Z,24.30
2022-10-21T09:06:08.616Z,22.40
2022-10-21T09:08:43.408Z,23.63
2022-10-21T09:11:25.445Z,24.75
2022-10-21T09:14:23.465Z,28.48
2022-10-21T09:16:59.901Z,25.42
2022-10-21T09:19:41.693Z,25.67
2022-10-21T09:22:36.211Z,23.08
2022-10-21T09:25:19.093Z,20.42
2022-10-21T09:28:03.337Z,22.60
2022-10-21T09:30:31.974Z,26.10
2022-10-21T09:33:01.382Z,24.45
2022-10-21T09:35:37.233Z,24.13
2022-10-21T09:38:09.746Z,22.42
2022-10-21T09:40:38.113Z,24.98
2022-10-21T09:43:12.555Z,23.55
2022-10-21T09:45:42.655Z,22.85
2022-10-21T09:48:24.274Z,25.02
2022-10-21T09:50:57.310Z,21.42
2022-10-21T09:53:30.245Z,22.80
2022-10-21T09:56:03.887Z,20.60
2022-10-21T09:58:49.543Z,21.65
2022-10-21T10:01:20.389Z,28.15
2022-10-21T10:03:50.645Z,23.38
2022-10-21T10:06:35.402Z,21.08
2022-10-21T10:09:10.144Z,20.75
2022-10-21T10:11:50.491Z,22.02
2022-10-21T10:14:31.151Z,18.20
2022-10-21T10:17:19.766Z,17.20
2022-10-21T10:20:13.543Z,22.52
2022-10-21T10:22:44.846Z,20.50
2022-10-21T10:25:22.933Z,19.33
2022-10-21T10:27:53.894Z,17.38
2022-10-21T10:30:23.705Z,17.90
2022-10-21T10:32:53.846Z,17.95
2022-10-21T10:35:30.004Z,17.08
2022-10-21T10:38:02.566Z,17.30
2022-10-21T10:40:38.958Z,17.13
2022-10-21T10:43:14.477Z,16.90
2022-10-21T10:45:49.690Z,15.57
2022-10-21T10:48:25.267Z,19.60
2022-10-21T10:50:53.614Z,19.10
2022-10-21T10:53:32.998Z,19.80
2022-10-21T10:56:14.776Z,16.92
2022-10-21T10:58:47.731Z,16.77
2022-10-21T11:01:26.665Z,18.58
2022-10-21T11:03:58.834Z,18.45
2022-10-21T11:06:36.665Z,13.98
2022-10-21T11:09:09.071Z,15.77
2022-10-21T11:11:40.014Z,20.00
2022-10-21T11:14:17.590Z,17.23
2022-10-21T11:17:06.753Z,17.00
2022-10-21T11:19:53.931Z,18.77
2022-10-21T11:22:30.617Z,16.50
2022-10-21T11:25:05.854Z,19.45
2022-10-21T11:27:55.543Z,18.20
2022-10-21T11:30:29.845Z,16.70
2022-10-21T11:33:06.627Z,19.05
2022-10-21T11:35:45.160Z,18.00
2022-10-21T11:38:30.612Z,20.25
2022-10-21T11:41:06.692Z,17.05
2022-10-21T11:43:44.445Z,17.63
2022-10-21T11:46:18.979Z,19.08
2022-10-21T11:49:08.262Z,18.40
2022-10-21T11:51:47.357Z,18.75
2022-10-21T11:54:32.831Z,17.67
2022-10-21T11:57:07.387Z,18.67
2022-10-21T11:59:54.188Z,18.75
2022-10-21T12:02:33.132Z,16.88
2022-10-21T12:05:07.047Z,19.75
2022-10-21T12:07:51.226Z,17.83
2022-10-21T12:10:32.794Z,18.65
2022-10-21T12:13:07.581Z,19.08
2022-10-21T12:15:41.423Z,20.48
2022-10-21T12:18:16.581Z,18.92
2022-10-21T12:20:48.998Z,22.08
2022-10-21T12:23:21.396Z,17.20
2022-10-21T12:26:06.699Z,17.27
2022-10-21T12:28:40.697Z,20.63
2022-10-21T12:31:24.949Z,19.23
2022-10-21T12:33:54.069Z,17.05
2022-10-21T12:36:45.403Z,17.30
2022-10-21T12:39:19.442Z,18.15
2022-10-21T12:41:48.707Z,18.63
2022-10-21T12:44:30.057Z,17.27
2022-10-21T12:47:03.804Z,17.25
2022-10-21T12:49:34.123Z,18.88
2022-10-21T12:52:10.799Z,17.70
2022-10-21T12:54:44.443Z,19.95
2022-10-21T12:57:25.297Z,19.02
2022-10-21T13:00:15.905Z,19.52
2022-10-21T13:03:03.874Z,18.33
2022-10-21T13:06:03.713Z,16.17
2022-10-21T13:08:40.326Z,20.33
2022-10-21T13:11:23.714Z,18.02
2022-10-21T13:14:25.411Z,18.88
2022-10-21T13:17:14.773Z,19.02
2022-10-21T13:19:43.326Z,23.45
2022-10-21T13:22:18.713Z,19.38
2022-10-21T13:24:47.847Z,17.80
2022-10-21T13:27:31.049Z,17.92
2022-10-21T13:30:00.742Z,19.17
2022-10-21T13:32:32.495Z,15.82
2022-10-21T13:35:27.743Z,19.85
2022-10-21T13:38:00.678Z,17.17
2022-10-21T13:40:33.919Z,16.95
2022-10-21T13:43:06.821Z,19.42
2022-10-21T13:45:37.670Z,17.58
2022-10-21T13:48:14.065Z,16.45
2022-10-21T13:50:44.565Z,17.60
2022-10-21T13:53:29.801Z,17.23
2022-10-21T13:56:00.997Z,17.73
2022-10-21T13:58:31.773Z,17.13
2022-10-21T14:01:09.370Z,19.75
2022-10-21T14:03:39.548Z,20.95
2022-10-21T14:06:09.780Z,20.02
2022-10-21T14:08:42.056Z,18.73
2022-10-21T14:11:17.560Z,22.15
2022-10-21T14:13:47.818Z,20.83
2022-10-21T14:16:21.562Z,22.33
2022-10-21T14:18:51.477Z,16.38
2022-10-21T14:21:22.822Z,22.90
2022-10-21T14:23:51.400Z,20.67
2022-10-21T14:26:20.169Z,21.85
2022-10-21T14:28:50.281Z,19.10
2022-10-21T14:31:19.446Z,19.08
2022-10-21T14:33:49.667Z,18.80
2022-10-21T14:36:23.334Z,19.58
2022-10-21T14:38:58.786Z,19.42
2022-10-21T14:41:29.548Z,20.92
2022-10-21T14:44:05.854Z,17.58
2022-10-21T14:46:42.539Z,17.90
2022-10-21T14:49:22.158Z,19.98
2022-10-21T14:51:57.150Z,21.42
2022-10-21T14:54:29.851Z,20.90
2022-10-21T14:57:00.085Z,19.58
2022-10-21T14:59:35.255Z,18.52
2022-10-21T15:02:04.136Z,18.13
2022-10-21T15:04:51.816Z,22.27
2022-10-21T15:07:29.853Z,23.05
2022-10-21T15:10:18.163Z,23.08
2022-10-21T15:12:47.515Z,19.40
2022-10-21T15:15:48.249Z,21.70
2022-10-21T15:18:23.863Z,17.83
2022-10-21T15:20:54.519Z,19.63
2022-10-21T15:23:27.971Z,19.67
2022-10-21T15:26:00.328Z,18.42
2022-10-21T15:28:31.337Z,18.80
2022-10-21T15:31:00.050Z,17.48
2022-10-21T15:33:28.469Z,20.33
2022-10-21T15:36:04.296Z,20.55
2022-10-21T15:38:33.718Z,18.50
2022-10-21T15:41:01.865Z,19.88
2022-10-21T15:43:29.981Z,18.88
2022-10-21T15:45:58.086Z,18.00
2022-10-21T15:48:26.194Z,20.88
2022-10-21T15:50:57.202Z,18.58
2022-10-21T15:53:25.297Z,20.38
2022-10-21T15:55:55.798Z,22.48
2022-10-21T15:58:26.425Z,24.55
2022-10-21T16:00:54.475Z,19.27
2022-10-21T16:03:22.953Z,22.45
2022-10-21T16:05:51.511Z,19.65
2022-10-21T16:08:19.494Z,20.30
2022-10-21T16:10:49.974Z,19.00
2022-10-21T16:13:19.474Z,24.13
2022-10-21T16:15:47.542Z,18.98
2022-10-21T16:18:16.959Z,17.38
2022-10-21T16:20:46.084Z,18.23
2022-10-21T16:23:14.505Z,20.98
2022-10-21T16:25:42.495Z,17.30
2022-10-21T16:28:13.177Z,19.02
2022-10-21T16:30:42.844Z,18.65
2022-10-21T16:33:11.318Z,18.55
2022-10-21T16:35:39.353Z,38.58
2022-10-21T16:38:07.399Z,35.92
2022-10-21T16:40:36.481Z,28.75
2022-10-21T16:43:04.499Z,20.58
2022-10-21T16:45:33.626Z,23.35
2022-10-21T16:48:06.886Z,21.90
2022-10-21T16:50:39.508Z,21.25
2022-10-21T16:53:08.525Z,17.92
2022-10-21T16:55:36.481Z,20.50
2022-10-21T16:58:04.625Z,19.30
2022-10-21T17:00:32.701Z,18.50
2022-10-21T17:03:02.517Z,17.05
2022-10-21T17:05:30.643Z,17.73
2022-10-21T17:08:00.046Z,15.68
2022-10-21T17:10:28.443Z,14.65
2022-10-21T17:12:59.252Z,17.63
2022-10-21T17:15:28.868Z,22.77
2022-10-21T17:17:56.970Z,18.50
2022-10-21T17:20:30.295Z,14.85
2022-10-21T17:22:58.877Z,15.27
2022-10-21T17:25:27.296Z,16.42
2022-10-21T17:27:55.369Z,15.77
2022-10-21T17:30:23.489Z,15.90
2022-10-21T17:32:51.470Z,15.20
2022-10-21T17:35:19.873Z,18.13
2022-10-21T17:37:50.086Z,21.38
2022-10-21T17:40:20.927Z,18.92
2022-10-21T17:42:49.682Z,18.58
2022-10-21T17:45:19.541Z,23.80
2022-10-21T17:47:47.605Z,18.67
2022-10-21T17:50:18.422Z,23.92
2022-10-21T17:52:46.446Z,16.85
2022-10-21T17:55:15.815Z,17.40
2022-10-21T17:57:43.838Z,15.27
2022-10-21T18:00:12.674Z,19.70
2022-10-21T18:02:41.179Z,21.48
2022-10-21T18:05:10.807Z,18.73
2022-10-21T18:07:39.280Z,24.13
2022-10-21T18:10:09.099Z,20.23
2022-10-21T18:12:38.721Z,23.08
2022-10-21T18:15:07.775Z,19.17
2022-10-21T18:17:37.483Z,20.85
2022-10-21T18:20:07.720Z,27.20
2022-10-21T18:22:36.072Z,20.15
2022-10-21T18:25:04.150Z,20.30
2022-10-21T18:27:32.196Z,20.92
2022-10-21T18:30:01.645Z,17.02
2022-10-21T18:32:29.628Z,22.13
2022-10-21T18:34:57.608Z,17.85
2022-10-21T18:37:28.760Z,20.70
2022-10-21T18:39:58.978Z,21.00
2022-10-21T18:42:27.558Z,21.75
2022-10-21T18:44:55.547Z,22.33
2022-10-21T18:47:24.953Z,20.45
2022-10-21T18:49:53.621Z,20.98
2022-10-21T18:52:21.688Z,20.20
2022-10-21T18:54:49.739Z,20.17
2022-10-21T18:57:17.736Z,22.05
2022-10-21T18:59:45.728Z,23.63
2022-10-21T19:02:20.264Z,23.30
2022-10-21T19:04:52.190Z,23.27
2022-10-21T19:07:20.235Z,22.40
2022-10-21T19:09:48.469Z,25.08
2022-10-21T19:12:21.038Z,25.63
2022-10-21T19:14:51.342Z,23.70
2022-10-21T19:17:20.109Z,25.35
2022-10-21T19:19:50.378Z,24.85
2022-10-21T19:22:18.535Z,25.95
2022-10-21T19:24:46.684Z,24.92
2022-10-21T19:27:15.059Z,26.45
2022-10-21T19:29:43.433Z,30.75
2022-10-21T19:32:13.685Z,25.25
2022-10-21T19:34:41.779Z,25.75
2022-10-21T19:37:12.524Z,24.88
2022-10-21T19:39:40.953Z,24.77
2022-10-21T19:42:08.999Z,29.92
2022-10-21T19:44:37.238Z,33.83
2022-10-21T19:47:05.322Z,25.75
2022-10-21T19:49:33.920Z,30.60
2022-10-21T19:52:03.196Z,27.17
2022-10-21T19:54:32.615Z,27.90
2022-10-21T19:57:00.634Z,27.52
2022-10-21T19:59:28.762Z,26.20
2022-10-21T20:01:56.864Z,27.92
2022-10-21T20:04:24.848Z,32.40
2022-10-21T20:06:52.927Z,30.40
2022-10-21T20:09:21.013Z,27.10
2022-10-21T20:11:50.441Z,37.22
2022-10-21T20:14:18.563Z,39.55
2022-10-21T20:16:49.977Z,42.72
2022-10-21T20:19:18.069Z,35.42
2022-10-21T20:21:46.227Z,33.72
2022-10-21T20:24:16.093Z,43.08
2022-10-21T20:26:45.652Z,49.17
2022-10-21T20:29:15.572Z,36.22
2022-10-21T20:31:43.675Z,48.83
2022-10-21T20:34:13.515Z,36.05
2022-10-21T20:36:41.911Z,35.85
2022-10-21T20:39:10.473Z,31.60
2022-10-21T20:41:38.654Z,30.90
2022-10-21T20:44:08.650Z,32.05
2022-10-21T20:46:38.537Z,30.42
2022-10-21T20:49:08.509Z,31.23
2022-10-21T20:51:38.430Z,32.10
2022-10-21T20:54:08.694Z,29.90
2022-10-21T20:56:38.860Z,36.13
2022-10-21T20:59:07.966Z,29.58
2022-10-21T21:01:41.924Z,31.25
2022-10-21T21:04:12.616Z,33.13
2022-10-21T21:06:42.642Z,33.65
2022-10-21T21:14:32.433Z,33.33
2022-10-21T21:17:01.866Z,39.92
2022-10-21T21:19:29.923Z,39.08
2022-10-21T21:21:57.971Z,44.47
2022-10-21T21:24:26.049Z,50.50
2022-10-21T21:26:54.047Z,39.50
2022-10-21T21:29:22.046Z,35.90
2022-10-21T21:31:50.113Z,27.20
2022-10-21T21:34:19.594Z,37.58
2022-10-21T21:36:47.587Z,39.08
2022-10-21T21:41:48.534Z,34.97
2022-10-21T21:44:16.586Z,28.48
2022-10-21T21:46:44.622Z,30.25
2022-10-21T21:49:12.638Z,36.85
2022-10-21T21:51:42.009Z,39.30
2022-10-21T21:54:10.046Z,45.72
2022-10-21T21:56:38.146Z,31.73
2022-10-21T21:59:06.175Z,33.95
2022-10-21T22:01:34.260Z,36.55
2022-10-21T22:04:02.359Z,32.83
2022-10-21T22:06:31.979Z,46.95
2022-10-21T22:09:02.964Z,39.88
2022-10-21T22:11:33.539Z,31.42
2022-10-21T22:14:01.754Z,34.35
2022-10-21T22:16:31.060Z,37.47
2022-10-21T22:19:01.289Z,32.50
2022-10-21T22:21:31.436Z,35.88
2022-10-21T22:24:00.985Z,48.30
2022-10-21T22:26:29.912Z,39.00
2022-10-21T22:28:58.117Z,36.20
2022-10-21T22:31:29.455Z,36.60
2022-10-21T22:34:00.527Z,41.15
2022-10-21T22:36:28.641Z,44.88
2022-10-21T22:38:56.639Z,39.55
2022-10-21T22:41:26.646Z,39.67
2022-10-21T22:43:54.744Z,33.17
2022-10-21T22:46:34.247Z,40.28
2022-10-21T22:49:03.604Z,39.22
2022-10-21T22:51:31.601Z,34.08
2022-10-21T22:53:59.787Z,35.97
2022-10-21T22:56:29.298Z,35.60
2022-10-21T22:58:57.879Z,38.85
2022-10-21T23:01:28.956Z,38.30
2022-10-21T23:03:57.981Z,35.33
2022-10-21T23:06:25.976Z,36.33
2022-10-21T23:08:54.043Z,40.13
2022-10-21T23:11:22.110Z,40.85
2022-10-21T23:14:02.493Z,40.38
2022-10-21T23:16:32.165Z,39.13
2022-10-21T23:19:00.593Z,34.95
2022-10-21T23:21:29.032Z,36.78
2022-10-21T23:23:57.504Z,35.35
2022-10-21T23:26:25.910Z,32.35
2022-10-21T23:28:55.457Z,35.15
2022-10-21T23:31:23.441Z,34.90
2022-10-21T23:33:51.471Z,34.25
2022-10-21T23:36:19.514Z,33.28
2022-10-21T23:38:47.545Z,35.00
2022-10-21T23:41:15.529Z,36.10
2022-10-21T23:43:43.538Z,29.90
2022-10-21T23:46:12.973Z,36.85
2022-10-21T23:48:41.115Z,32.72
2022-10-21T23:51:09.268Z,31.98
2022-10-21T23:53:37.342Z,31.58
2022-10-21T23:56:05.967Z,39.65
2022-10-21T23:58:33.981Z,32.88
